Time;durP1;ratioP1;P1;durP2;ratioP2;P2;SDS_P1;SDS_P2;PMS_P1;PMS_P2;Temp;Humidity;BMP_temperature;BMP_pressure;BME280_temperature;BME280_humidity;BME280_pressure;Samples;Min_cycle;Max_cycle;Signal;HPM_P1;HPM_P2
2021/04/09 00:06:13;;;;;;;0.20;0.10;;;10.20;99.90;;;;;;20734144;28;20198;-77
2021/04/09 00:16:15;;;;;;;0.20;0.03;;;10.10;99.90;;;;;;20679565;28;20250;-77
2021/04/09 00:26:19;;;;;;;0.20;0.20;;;10.10;99.90;;;;;;20642951;28;20271;-78
2021/04/09 00:36:22;;;;;;;0.37;0.30;;;10.20;99.90;;;;;;20656254;28;20257;-75
2021/04/09 00:46:25;;;;;;;0.20;0.20;;;10.20;99.90;;;;;;20731842;28;20202;-74
2021/04/09 00:56:30;;;;;;;0.27;0.27;;;10.20;99.90;;;;;;20730985;28;20296;-72
2021/04/09 01:06:35;;;;;;;0.40;0.40;;;10.20;99.90;;;;;;20730827;28;20186;-74
2021/04/09 01:16:44;;;;;;;1.53;1.07;;;10.10;99.90;;;;;;20730179;28;20222;-73
2021/04/09 01:27:23;;;;;;;0.20;0.20;;;10.10;99.90;;;;;;20732853;28;20250;-74
2021/04/09 01:37:30;;;;;;;0.20;0.10;;;9.90;99.90;;;;;;20664853;28;20241;-74
2021/04/09 01:47:34;;;;;;;0.30;0.30;;;9.70;99.90;;;;;;20743163;28;20286;-75
2021/04/09 01:57:39;;;;;;;0.20;0.10;;;9.70;99.90;;;;;;20742489;28;20586;-75
2021/04/09 02:07:43;;;;;;;0.70;0.57;;;9.70;99.90;;;;;;20724230;28;20206;-75
2021/04/09 02:17:47;;;;;;;0.40;0.33;;;9.50;99.90;;;;;;20740640;28;20269;-75
2021/04/09 02:27:51;;;;;;;15.90;0.50;;;9.70;99.90;;;;;;20740847;28;20660;-79
2021/04/09 02:37:55;;;;;;;2.90;1.27;;;9.80;99.90;;;;;;20699635;28;20242;-81
2021/04/09 02:48:01;;;;;;;0.53;0.53;;;9.70;99.90;;;;;;20721397;28;20191;-80
2021/04/09 02:58:07;;;;;;;0.20;0.20;;;9.80;99.90;;;;;;20720818;28;20206;-75
2021/04/09 03:08:11;;;;;;;0.20;0.10;;;9.90;99.90;;;;;;20703135;28;20223;-74
2021/04/09 03:18:16;;;;;;;0.20;0.20;;;9.90;99.90;;;;;;20655090;28;20315;-74
2021/04/09 03:28:24;;;;;;;0.20;0.13;;;9.90;99.90;;;;;;20654381;28;20219;-74
2021/04/09 03:38:27;;;;;;;0.20;0.10;;;9.90;99.90;;;;;;20674631;28;20551;-74
2021/04/09 03:48:30;;;;;;;0.30;0.30;;;10.00;99.90;;;;;;20733962;28;20305;-74
2021/04/09 03:58:34;;;;;;;0.77;0.77;;;10.10;99.90;;;;;;20732141;28;20229;-75
2021/04/09 04:08:36;;;;;;;0.40;0.40;;;10.10;99.90;;;;;;20716212;28;20317;-78
2021/04/09 04:18:40;;;;;;;0.97;0.60;;;10.10;99.90;;;;;;20732632;28;20222;-78
2021/04/09 04:28:43;;;;;;;0.23;0.07;;;10.20;99.90;;;;;;20714319;28;20731;-77
2021/04/09 04:38:48;;;;;;;0.23;0.17;;;10.50;99.90;;;;;;20694937;28;20567;-76
2021/04/09 04:48:52;;;;;;;0.30;0.27;;;10.60;99.90;;;;;;20713367;28;20225;-77
2021/04/09 04:58:55;;;;;;;1.37;0.47;;;10.40;99.90;;;;;;20730509;28;20214;-78
2021/04/09 05:08:58;;;;;;;0.20;0.10;;;10.40;99.90;;;;;;20745300;28;20276;-77
2021/04/09 05:19:02;;;;;;;0.33;0.33;;;9.90;99.90;;;;;;20746105;28;20758;-76
2021/04/09 05:29:05;;;;;;;0.20;0.20;;;9.90;99.90;;;;;;20743602;28;20223;-77
2021/04/09 05:39:08;;;;;;;0.30;0.30;;;9.90;99.90;;;;;;20706375;28;20675;-78
2021/04/09 05:49:12;;;;;;;0.43;0.43;;;9.80;99.90;;;;;;20744158;28;20334;-71
2021/04/09 05:59:16;;;;;;;1.23;0.33;;;10.00;99.90;;;;;;20722760;28;20223;-76
2021/04/09 06:09:18;;;;;;;0.20;0.10;;;10.10;99.90;;;;;;20720289;28;20242;-76
2021/04/09 06:19:22;;;;;;;2.10;0.30;;;10.40;99.90;;;;;;20737613;28;20296;-79
2021/04/09 06:29:25;;;;;;;0.60;0.60;;;10.70;99.90;;;;;;20737423;28;20268;-75
2021/04/09 06:39:29;;;;;;;1.20;0.77;;;11.00;99.90;;;;;;20680232;28;20609;-76
2021/04/09 06:49:31;;;;;;;0.30;0.30;;;11.60;99.90;;;;;;20656511;28;20622;-78
2021/04/09 06:59:42;;;;;;;1.33;0.63;;;12.40;99.90;;;;;;20655257;28;20265;-78
2021/04/09 07:09:46;;;;;;;4.53;0.40;;;13.30;99.90;;;;;;20701977;28;20238;-78
2021/04/09 07:19:50;;;;;;;0.20;0.10;;;13.40;99.90;;;;;;20634311;28;20310;-75
2021/04/09 07:29:54;;;;;;;0.50;0.50;;;13.70;99.90;;;;;;20633379;28;20231;-77
2021/04/09 07:39:59;;;;;;;0.20;0.10;;;13.90;99.90;;;;;;20688653;28;20228;-75
2021/04/09 07:50:07;;;;;;;4.43;0.27;;;13.80;99.90;;;;;;20733935;28;20226;-74
2021/04/09 08:00:20;;;;;;;1.67;1.13;;;14.50;99.90;;;;;;20700184;28;20202;-74
2021/04/09 08:10:27;;;;;;;0.20;0.20;;;14.90;99.90;;;;;;20732771;28;20265;-78
2021/04/09 08:20:36;;;;;;;0.63;0.53;;;15.20;99.90;;;;;;20714371;28;20238;-77
2021/04/09 08:31:17;;;;;;;0.20;0.20;;;15.00;99.90;;;;;;20724140;28;20187;-76
2021/04/09 09:03:40;;;;;;;0.20;0.10;;;16.30;99.90;;;;;;22375508;23;20239;-78
2021/04/09 09:26:41;;;;;;;0.30;0.27;;;16.40;99.90;;;;;;20683485;23;20246;-77
2021/04/09 09:48:33;;;;;;;0.93;0.40;;;16.20;99.90;;;;;;20870280;23;20257;-75
2021/04/09 10:10:50;;;;;;;1.67;0.77;;;16.70;99.90;;;;;;20617864;23;20265;-77
2021/04/09 10:21:26;;;;;;;0.20;0.20;;;16.70;99.90;;;;;;20639560;28;20238;-72
2021/04/09 10:31:34;;;;;;;1.63;0.83;;;17.10;99.90;;;;;;20661905;28;20527;-75
2021/04/09 10:41:38;;;;;;;1.23;0.40;;;18.20;99.90;;;;;;20705001;28;20223;-80
2021/04/09 10:51:43;;;;;;;0.40;0.40;;;18.50;99.90;;;;;;20724193;28;20191;-76
2021/04/09 11:01:46;;;;;;;1.03;1.00;;;18.40;99.90;;;;;;20704757;28;20248;-82
2021/04/09 11:11:53;;;;;;;0.20;0.20;;;17.50;99.90;;;;;;20724243;28;20261;-80
2021/04/09 11:21:57;;;;;;;1.80;0.90;;;17.00;99.90;;;;;;20726679;28;20226;-79
2021/04/09 11:32:14;;;;;;;0.80;0.50;;;16.90;99.90;;;;;;20669327;28;20195;-74
2021/04/09 11:42:27;;;;;;;0.30;0.30;;;17.10;99.90;;;;;;20712711;28;20568;-83
2021/04/09 11:52:53;;;;;;;0.30;0.20;;;17.50;99.90;;;;;;20720234;28;20200;-76
2021/04/09 12:03:16;;;;;;;0.67;0.60;;;18.10;99.90;;;;;;20712334;28;20259;-82
2021/04/09 12:13:20;;;;;;;0.93;0.50;;;17.50;99.90;;;;;;20736368;28;20256;-76
2021/04/09 12:23:23;;;;;;;1.20;1.10;;;17.20;99.90;;;;;;20732336;28;20254;-83
2021/04/09 12:33:27;;;;;;;0.20;0.17;;;17.00;99.90;;;;;;20567891;28;20200;-74
2021/04/09 12:43:30;;;;;;;0.20;0.10;;;16.40;99.90;;;;;;20692896;28;20627;-80
2021/04/09 12:53:34;;;;;;;0.47;0.47;;;16.40;99.90;;;;;;20667588;28;20187;-76
2021/04/09 13:03:38;;;;;;;2.00;1.37;;;16.30;99.90;;;;;;20631261;28;20231;-77
2021/04/09 13:13:47;;;;;;;0.40;0.23;;;16.50;99.90;;;;;;20631309;28;20225;-75
2021/04/09 13:23:50;;;;;;;0.87;0.63;;;16.10;99.90;;;;;;20653475;28;20327;-76
2021/04/09 13:33:55;;;;;;;0.40;0.40;;;16.00;99.90;;;;;;20662306;28;20266;-77
2021/04/09 13:43:59;;;;;;;4.00;0.73;;;15.80;99.90;;;;;;20651921;28;20215;-77
2021/04/09 13:54:02;;;;;;;0.90;0.90;;;15.90;99.90;;;;;;20630331;28;20203;-77
2021/04/09 14:04:05;;;;;;;0.80;0.50;;;16.00;99.90;;;;;;20644201;28;20239;-77
2021/04/09 14:14:13;;;;;;;0.70;0.70;;;15.70;99.90;;;;;;20640508;28;20231;-78
2021/04/09 14:24:20;;;;;;;2.97;0.83;;;16.20;99.90;;;;;;20657630;28;20282;-77
2021/04/09 14:34:25;;;;;;;5.83;1.60;;;16.00;99.90;;;;;;20655886;28;20274;-76
2021/04/09 14:44:27;;;;;;;0.83;0.63;;;15.80;99.90;;;;;;20590187;28;20239;-71
2021/04/09 14:54:31;;;;;;;0.47;0.33;;;16.50;99.90;;;;;;20558038;28;20232;-74
2021/04/09 15:04:51;;;;;;;2.73;1.03;;;16.30;99.90;;;;;;20556638;28;20291;-80
2021/04/09 15:14:55;;;;;;;0.30;0.30;;;17.20;99.90;;;;;;20555155;28;20236;-79
2021/04/09 15:25:01;;;;;;;7.20;1.47;;;16.80;99.90;;;;;;20566575;28;20223;-76
2021/04/09 15:35:11;;;;;;;0.90;0.77;;;16.20;99.90;;;;;;20584357;28;20192;-76
2021/04/09 15:45:33;;;;;;;0.70;0.30;;;16.10;99.90;;;;;;20724415;28;20227;-78
2021/04/09 15:55:36;;;;;;;0.20;0.17;;;16.30;99.90;;;;;;20728624;28;20329;-75
2021/04/09 16:05:39;;;;;;;3.60;0.77;;;15.80;99.90;;;;;;20712244;28;20230;-75
2021/04/09 16:15:43;;;;;;;0.50;0.43;;;15.60;99.90;;;;;;20727767;28;20254;-78
2021/04/09 16:25:46;;;;;;;1.03;0.87;;;15.50;99.90;;;;;;20707934;28;20247;-80
2021/04/09 16:35:53;;;;;;;4.40;1.90;;;15.40;99.90;;;;;;20646670;28;20540;-76
2021/04/09 16:45:59;;;;;;;0.87;0.87;;;15.20;99.90;;;;;;20557793;28;20579;-77
2021/04/09 16:56:03;;;;;;;6.80;1.77;;;15.20;99.90;;;;;;20630443;28;20196;-76
2021/04/09 17:06:09;;;;;;;12.93;2.33;;;15.20;99.90;;;;;;20659978;28;20281;-78
2021/04/09 17:16:13;;;;;;;1.53;1.13;;;15.20;99.90;;;;;;20595143;28;21043;-79
2021/04/09 17:26:21;;;;;;;0.43;0.37;;;15.10;99.90;;;;;;20580973;28;20220;-76
2021/04/09 17:36:24;;;;;;;1.20;1.10;;;15.20;99.90;;;;;;20668834;28;20273;-76
2021/04/09 17:46:27;;;;;;;0.30;0.20;;;15.00;99.90;;;;;;20741758;28;20230;-73
2021/04/09 17:56:43;;;;;;;9.83;0.87;;;14.90;99.90;;;;;;20741081;28;20613;-78
2021/04/09 18:06:50;;;;;;;1.67;1.57;;;14.90;99.90;;;;;;20676527;28;20222;-73
2021/04/09 18:16:53;;;;;;;2.17;1.63;;;14.70;99.90;;;;;;20656641;28;20307;-82
2021/04/09 18:26:56;;;;;;;1.63;1.23;;;14.70;99.90;;;;;;20657438;28;20227;-74
2021/04/09 18:37:00;;;;;;;5.67;1.17;;;14.60;99.90;;;;;;20695638;28;20632;-77
2021/04/09 18:47:05;;;;;;;9.93;1.00;;;14.60;99.90;;;;;;20709270;28;20267;-69
2021/04/09 18:57:11;;;;;;;1.33;0.70;;;14.50;99.90;;;;;;20636184;28;20231;-78
2021/04/09 19:07:16;;;;;;;0.67;0.67;;;14.60;99.90;;;;;;20652098;28;20334;-76
2021/04/09 19:27:38;;;;;;;0.20;0.10;;;14.60;99.90;;;;;;20647548;28;20345;-76
2021/04/09 19:37:42;;;;;;;3.07;1.70;;;14.60;99.90;;;;;;20701459;28;20203;-76
2021/04/09 19:47:45;;;;;;;0.30;0.23;;;14.40;99.90;;;;;;20730452;28;20758;-75
2021/04/09 19:57:49;;;;;;;2.93;0.53;;;14.30;99.90;;;;;;20688151;28;20199;-75
2021/04/09 20:07:53;;;;;;;5.23;1.77;;;14.50;99.90;;;;;;20647808;28;20254;-80
2021/04/09 20:18:01;;;;;;;11.97;1.13;;;14.50;99.90;;;;;;20630279;28;20237;-80
2021/04/09 20:28:05;;;;;;;1.13;0.80;;;14.50;99.90;;;;;;20632120;28;20640;-81
2021/04/09 20:38:18;;;;;;;6.80;1.17;;;14.50;99.90;;;;;;20628982;28;20207;-80
2021/04/09 20:58:41;;;;;;;9.60;0.97;;;14.30;99.90;;;;;;19958696;26;20231;-82
2021/04/09 21:20:39;;;;;;;0.67;0.67;;;14.10;99.90;;;;;;20575116;23;20231;-81
2021/04/09 21:30:57;;;;;;;0.77;0.70;;;14.00;99.90;;;;;;20644194;28;20722;-81
2021/04/09 21:41:01;;;;;;;2.20;1.03;;;13.90;99.90;;;;;;20662363;28;20664;-80
2021/04/09 21:51:36;;;;;;;0.40;0.33;;;13.50;99.90;;;;;;20660647;28;20639;-81
2021/04/09 22:01:41;;;;;;;1.27;0.43;;;13.20;99.90;;;;;;20661054;28;20220;-79
2021/04/09 22:11:51;;;;;;;0.20;0.10;;;13.20;99.90;;;;;;20660948;28;20194;-80
2021/04/09 22:21:55;;;;;;;4.00;1.50;;;13.10;99.90;;;;;;20661500;28;20498;-80
2021/04/09 22:31:58;;;;;;;5.97;1.03;;;13.10;99.90;;;;;;20643946;28;20199;-80
2021/04/09 22:42:04;;;;;;;0.50;0.30;;;13.10;99.90;;;;;;20660572;28;20222;-80
2021/04/09 22:52:09;;;;;;;0.23;0.20;;;13.10;99.90;;;;;;20640923;28;20191;-79
2021/04/09 23:02:13;;;;;;;0.50;0.40;;;13.10;99.90;;;;;;20640275;28;20223;-76
2021/04/09 23:12:16;;;;;;;0.30;0.20;;;13.10;99.90;;;;;;20654021;28;20218;-76
2021/04/09 23:22:19;;;;;;;0.57;0.37;;;13.10;99.90;;;;;;20652604;28;20234;-78
2021/04/09 23:32:22;;;;;;;0.73;0.67;;;13.20;99.90;;;;;;20575915;28;20208;-77
2021/04/09 23:42:26;;;;;;;0.20;0.20;;;13.30;99.90;;;;;;20680711;28;20698;-77
2021/04/09 23:52:29;;;;;;;0.43;0.43;;;13.20;99.90;;;;;;20736346;28;20218;-77
